Terminal Aerodrome Forecast
Issued by NWS

Home | Current Version | Previous Version | Text Only | Print | Product List | Glossary On
Versions: 1 2 3 4 5 6 7 8 9 10 11 12 13 14 15 16 17 18 19 20 21 22 23 24 25 26 27 28 29
000
FTUS43 KDLH 022300 RRA
TAFHYR
TAF
KHYR 022343Z 0300/0324 20010KT P6SM BKN100
     FM030600 19010KT P6SM VCSH SCT030 OVC060
     FM030900 18012KT 3SM -SN SCT025 OVC030
     FM031400 19008KT 1SM -SN OVC015
     FM032100 29014G25KT 5SM BLSN OVC025=

USA.gov is the U.S. government's official web portal to all federal, state and local government web resources and services.